LGIO Airport Information

Runway Information
Runway 14 Length 7874 ft width 148 ft
Elevation 1550 ft Threshold 0 ft Heading 142
Runway 32 Length 7874 ft Width 148 ft
Elevation 1558 ft Threshold 394 ft Heading 322
Airport Frequencies
Type A/D Name APP Frequency 118.6 MHZ
Type A/G Name RDO Frequency 563.7 MHZ
Type AFIS Name AFIS Frequency 132.2 MHZ
Type TWR Name TWR Frequency 132.2 MHZ
Airport Navaids
Type NDB Name Ioannina Frequency 340 KHZ
Type VOR-DME Name Ioannina Frequency 108600 KHZ
Airport Weather Information & NOTAM
ADDS - METARS form results

(1048 UTC 22 October 2019)
Data provider http://aviationweather.gov/metar/data/
 
METAR text: LGIO 221020Z 30004KT CAVOK 25/13 Q1022
Conditions at: LGIO (IOANNINA , GR) observed 1020 UTC 22 October 2019
Temperature: 25.0°C (77°F)
Dewpoint: 13.0°C (55°F) [RH = 47%]
Pressure (altimeter): 30.18 inches Hg (1022.0 mb)
Winds: from the WNW (300 degrees) at 5 MPH (4 knots; 2.1 m/s)
Visibility: 6 or more miles (10+ km)
Ceiling: ceiling and visibility are OK
Clouds: unknown
Weather: no significant weather observed at this time

METAR text: LGIO 220950Z 30004KT CAVOK 24/13 Q1022
Conditions at: LGIO (IOANNINA , GR) observed 0950 UTC 22 October 2019
Temperature: 24.0°C (75°F)
Dewpoint: 13.0°C (55°F) [RH = 50%]
Pressure (altimeter): 30.18 inches Hg (1022.0 mb)
Winds: from the WNW (300 degrees) at 5 MPH (4 knots; 2.1 m/s)
Visibility: 6 or more miles (10+ km)
Ceiling: ceiling and visibility are OK
Clouds: unknown
Weather: no significant weather observed at this time

Forecast for: LGIO (IOANNINA , GR)
Text: TAF LGIO 220800Z 2209/2218 VRB03KT 9999 FEW025
Forecast period: 0900 to 1800 UTC 22 October 2019
Forecast type: FROM: standard forecast or significant change
Winds: variable direction winds at 3 MPH (3 knots; 1.5 m/s)
Visibility: 6 or more miles 10+ km)
Ceiling: at least 12,000 feet AGL
Clouds: few clouds at 2500 feet AGL
Weather: no significant weather forecast for this period